createdAt,value
2022-08-20T00:00:18.054Z,99.99
2022-08-20T00:01:18.032Z,99.99
2022-08-20T00:02:18.018Z,99.99
2022-08-20T00:03:18.006Z,99.99
2022-08-20T00:04:17.997Z,99.99
2022-08-20T00:05:17.983Z,99.99
2022-08-20T00:06:17.970Z,99.99
2022-08-20T00:07:17.956Z,99.99
2022-08-20T00:08:17.947Z,99.99
2022-08-20T00:09:17.931Z,99.99
2022-08-20T00:10:17.918Z,99.99
2022-08-20T00:11:17.906Z,99.99
2022-08-20T00:12:17.893Z,99.99
2022-08-20T00:13:18.113Z,99.99
2022-08-20T00:14:17.870Z,99.99
2022-08-20T00:15:17.853Z,99.99
2022-08-20T00:16:17.841Z,99.99
2022-08-20T00:17:17.829Z,99.99
2022-08-20T00:18:17.817Z,99.99
2022-08-20T00:19:17.799Z,99.99
2022-08-20T00:20:17.793Z,99.99
2022-08-20T00:21:18.985Z,99.99
2022-08-20T00:22:17.761Z,99.99
2022-08-20T00:23:17.755Z,99.99
2022-08-20T00:24:17.746Z,99.99
2022-08-20T00:25:17.723Z,99.99
2022-08-20T00:26:17.716Z,99.99
2022-08-20T00:27:17.700Z,99.99
2022-08-20T00:28:17.688Z,99.99
2022-08-20T00:29:17.673Z,99.99
2022-08-20T00:30:17.665Z,99.99
2022-08-20T00:31:17.651Z,99.99
2022-08-20T00:32:17.637Z,99.99
2022-08-20T00:33:17.620Z,99.99
2022-08-20T00:34:17.617Z,99.99
2022-08-20T00:35:17.598Z,99.99
2022-08-20T00:36:17.585Z,99.99
2022-08-20T00:37:17.570Z,99.99
2022-08-20T00:38:17.559Z,99.99
2022-08-20T00:39:17.547Z,99.99
2022-08-20T00:40:22.572Z,99.99
2022-08-20T00:41:17.521Z,99.99
2022-08-20T00:42:17.509Z,99.99
2022-08-20T00:43:17.497Z,99.99
2022-08-20T00:44:17.482Z,99.99
2022-08-20T00:45:17.470Z,99.99
2022-08-20T00:46:17.457Z,99.99
2022-08-20T00:47:17.441Z,99.99
2022-08-20T00:48:17.432Z,99.99
2022-08-20T00:49:17.419Z,99.99
2022-08-20T00:50:17.409Z,99.99
2022-08-20T00:51:17.394Z,99.99
2022-08-20T00:52:17.381Z,99.99
2022-08-20T00:53:17.364Z,99.99
2022-08-20T00:54:17.361Z,99.99
2022-08-20T00:55:17.347Z,99.99
2022-08-20T00:56:17.328Z,99.99
2022-08-20T00:57:17.315Z,99.99
2022-08-20T00:58:17.306Z,99.99
2022-08-20T00:59:17.293Z,99.99
2022-08-20T01:00:17.277Z,99.99
2022-08-20T01:01:17.335Z,99.99
2022-08-20T01:02:17.301Z,99.99
2022-08-20T01:03:17.238Z,99.99
2022-08-20T01:04:17.226Z,99.99
2022-08-20T01:05:17.219Z,99.99
2022-08-20T01:06:17.200Z,99.99
2022-08-20T01:07:17.186Z,99.99
2022-08-20T01:08:17.178Z,99.99
2022-08-20T01:09:17.164Z,99.99
2022-08-20T01:10:19.440Z,99.99
2022-08-20T01:11:17.136Z,99.99
2022-08-20T01:12:17.122Z,99.99
2022-08-20T01:13:17.109Z,99.99
2022-08-20T01:14:17.098Z,99.99
2022-08-20T01:15:17.084Z,99.99
2022-08-20T01:16:17.598Z,99.99
2022-08-20T01:17:17.062Z,99.99
2022-08-20T01:18:17.046Z,99.99
2022-08-20T01:19:30.081Z,99.99
2022-08-20T01:20:18.046Z,99.99
2022-08-20T01:21:17.008Z,99.99
2022-08-20T01:22:16.994Z,99.99
2022-08-20T01:23:16.985Z,99.99
2022-08-20T01:24:16.975Z,99.99
2022-08-20T01:25:16.963Z,99.99
2022-08-20T01:26:16.952Z,99.99
2022-08-20T01:27:16.939Z,99.99
2022-08-20T01:28:16.918Z,99.99
2022-08-20T01:29:16.905Z,99.99
2022-08-20T01:30:16.892Z,99.99
2022-08-20T01:31:16.878Z,99.99
2022-08-20T01:32:16.866Z,99.99
2022-08-20T01:33:16.855Z,99.99
2022-08-20T01:34:16.841Z,99.99
2022-08-20T01:35:16.830Z,99.99
2022-08-20T01:36:16.815Z,99.99
2022-08-20T01:37:16.802Z,99.99
2022-08-20T01:38:16.790Z,99.99
2022-08-20T01:39:16.778Z,99.99
2022-08-20T01:40:16.834Z,99.99
2022-08-20T01:41:16.755Z,99.99
2022-08-20T01:42:16.737Z,99.99
2022-08-20T01:43:17.215Z,99.99
2022-08-20T01:44:18.499Z,99.99
2022-08-20T01:45:16.699Z,99.99
2022-08-20T01:46:16.686Z,99.99
2022-08-20T01:47:16.680Z,99.99
2022-08-20T01:48:16.661Z,99.99
2022-08-20T01:49:23.369Z,99.99
2022-08-20T01:50:17.667Z,99.99
2022-08-20T01:51:16.625Z,99.99
2022-08-20T01:52:16.613Z,99.99
2022-08-20T01:53:16.593Z,99.99
2022-08-20T01:54:16.585Z,99.99
2022-08-20T01:55:16.574Z,99.99
2022-08-20T01:56:16.558Z,99.99
2022-08-20T01:57:16.554Z,99.99
2022-08-20T01:58:16.535Z,99.99
2022-08-20T01:59:16.520Z,99.99
2022-08-20T02:00:19.884Z,99.99
2022-08-20T02:01:16.555Z,99.99
2022-08-20T02:02:16.484Z,99.99
2022-08-20T02:03:16.467Z,99.99
2022-08-20T02:04:16.458Z,99.99
2022-08-20T02:05:16.442Z,99.99
2022-08-20T02:06:16.429Z,99.99
2022-08-20T02:07:16.416Z,99.99
2022-08-20T02:08:16.404Z,99.99
2022-08-20T02:09:16.387Z,99.99
2022-08-20T02:10:16.377Z,99.99
2022-08-20T02:11:16.361Z,99.99
2022-08-20T02:12:16.353Z,99.99
2022-08-20T02:13:16.340Z,99.99
2022-08-20T02:14:16.324Z,99.99
2022-08-20T02:15:16.313Z,99.99
2022-08-20T02:16:16.298Z,99.99
2022-08-20T02:17:16.292Z,99.99
2022-08-20T02:18:16.272Z,99.99
2022-08-20T02:19:16.265Z,99.99
2022-08-20T02:20:16.250Z,99.99
2022-08-20T02:21:16.234Z,99.99
2022-08-20T02:22:16.220Z,99.99
2022-08-20T02:23:16.213Z,99.99
2022-08-20T02:24:16.193Z,99.99
2022-08-20T02:25:16.179Z,99.99
2022-08-20T02:26:16.169Z,99.99
2022-08-20T02:27:16.158Z,99.99
2022-08-20T02:28:16.142Z,99.99
2022-08-20T02:29:16.130Z,99.99
2022-08-20T02:30:21.178Z,99.99
2022-08-20T02:31:17.133Z,99.99
2022-08-20T02:32:32.471Z,99.99
2022-08-20T02:33:17.124Z,99.99
2022-08-20T02:34:22.232Z,99.99
2022-08-20T02:35:16.052Z,99.99
2022-08-20T02:36:16.036Z,99.99
2022-08-20T02:37:16.023Z,99.99
2022-08-20T02:38:16.014Z,99.99
2022-08-20T02:39:16.001Z,99.99
2022-08-20T02:40:16.052Z,99.99
2022-08-20T02:41:15.972Z,99.99
2022-08-20T02:42:15.956Z,99.99
2022-08-20T02:43:15.947Z,99.99
2022-08-20T02:44:15.931Z,99.99
2022-08-20T02:45:18.847Z,99.99
2022-08-20T02:46:15.906Z,99.99
2022-08-20T02:47:15.896Z,99.99
2022-08-20T02:48:15.880Z,99.99
2022-08-20T02:49:15.864Z,99.99
2022-08-20T02:50:15.854Z,99.99
2022-08-20T02:51:15.841Z,99.99
2022-08-20T02:52:15.826Z,99.99
2022-08-20T02:53:15.817Z,99.99
2022-08-20T02:54:15.804Z,99.99
2022-08-20T02:55:23.120Z,99.99
2022-08-20T02:56:16.810Z,99.99
2022-08-20T02:57:15.765Z,99.99
2022-08-20T02:58:15.750Z,99.99
2022-08-20T02:59:19.059Z,99.99
2022-08-20T03:00:15.724Z,99.99
2022-08-20T03:01:15.799Z,99.99
2022-08-20T03:02:15.699Z,99.99
2022-08-20T03:03:15.686Z,99.99
2022-08-20T03:04:15.672Z,99.99
2022-08-20T03:05:15.664Z,99.99
2022-08-20T03:06:15.645Z,99.99
2022-08-20T03:07:15.632Z,99.99
2022-08-20T03:08:15.625Z,99.99
2022-08-20T03:09:15.606Z,99.99
2022-08-20T03:10:15.597Z,99.99
2022-08-20T03:11:15.581Z,99.99
2022-08-20T03:12:15.565Z,99.99
2022-08-20T03:13:15.556Z,99.99
2022-08-20T03:14:15.545Z,99.99
2022-08-20T03:15:17.154Z,99.99
2022-08-20T03:16:15.514Z,99.99
2022-08-20T03:17:15.502Z,99.99
2022-08-20T03:18:15.489Z,99.99
2022-08-20T03:19:15.478Z,99.99
2022-08-20T03:20:15.466Z,99.99
2022-08-20T03:21:15.451Z,99.99
2022-08-20T03:22:15.442Z,99.99
2022-08-20T03:23:15.425Z,99.99
2022-08-20T03:24:15.409Z,99.99
2022-08-20T03:25:15.402Z,99.99
2022-08-20T03:26:15.383Z,99.99
2022-08-20T03:27:15.371Z,99.99
2022-08-20T03:28:15.361Z,99.99
2022-08-20T03:29:15.346Z,99.99
2022-08-20T03:30:15.335Z,99.99
2022-08-20T03:31:15.333Z,99.99
2022-08-20T03:32:15.308Z,99.99
2022-08-20T03:33:15.295Z,99.99
2022-08-20T03:34:15.281Z,99.99
2022-08-20T03:35:15.266Z,99.99
2022-08-20T03:36:15.253Z,99.99
2022-08-20T03:37:15.241Z,99.99
2022-08-20T03:38:15.227Z,99.99
2022-08-20T03:39:15.217Z,99.99
2022-08-20T03:40:15.296Z,99.99
2022-08-20T03:41:15.193Z,99.99
2022-08-20T03:42:15.177Z,99.99
2022-08-20T03:43:15.164Z,99.99
2022-08-20T03:44:15.150Z,99.99
2022-08-20T03:45:20.224Z,99.99
2022-08-20T03:46:23.103Z,99.99
2022-08-20T03:47:16.143Z,99.99
2022-08-20T03:48:15.096Z,99.99
2022-08-20T03:49:15.087Z,99.99
2022-08-20T03:50:22.901Z,99.99
2022-08-20T03:51:16.095Z,99.99
2022-08-20T03:52:15.048Z,99.99
2022-08-20T03:53:15.028Z,99.99
2022-08-20T03:54:15.016Z,99.99
2022-08-20T03:55:15.006Z,99.99
2022-08-20T03:56:14.990Z,99.99
2022-08-20T03:57:14.980Z,99.99
2022-08-20T03:58:14.963Z,99.99
2022-08-20T03:59:14.950Z,99.99
2022-08-20T04:00:14.938Z,99.99
2022-08-20T04:01:45.207Z,99.99
2022-08-20T04:02:15.994Z,99.99
2022-08-20T04:03:14.899Z,99.99
2022-08-20T04:04:14.887Z,99.99
2022-08-20T04:05:14.874Z,99.99
2022-08-20T04:06:14.859Z,99.99
2022-08-20T04:07:14.845Z,99.99
2022-08-20T04:08:14.835Z,99.99
2022-08-20T04:09:14.824Z,99.99
2022-08-20T04:10:14.808Z,99.99
2022-08-20T04:11:14.794Z,99.99
2022-08-20T04:12:14.782Z,99.99
2022-08-20T04:13:14.771Z,99.99
2022-08-20T04:14:17.373Z,99.99
2022-08-20T04:15:14.746Z,99.99
2022-08-20T04:16:14.866Z,99.99
2022-08-20T04:17:14.717Z,99.99
2022-08-20T04:18:14.704Z,99.99
2022-08-20T04:19:14.691Z,99.99
2022-08-20T04:20:14.675Z,99.99
2022-08-20T04:21:14.662Z,99.99
2022-08-20T04:22:14.653Z,99.99
2022-08-20T04:23:14.641Z,99.99
2022-08-20T04:24:22.684Z,99.99
2022-08-20T04:25:15.909Z,99.99
2022-08-20T04:26:14.603Z,99.99
2022-08-20T04:27:14.590Z,99.99
2022-08-20T04:28:14.574Z,99.99
2022-08-20T04:29:14.564Z,99.99
2022-08-20T04:30:14.544Z,99.99
2022-08-20T04:31:14.533Z,99.99
2022-08-20T04:32:14.520Z,99.99
2022-08-20T04:33:14.505Z,99.99
2022-08-20T04:34:14.494Z,99.99
2022-08-20T04:35:14.480Z,99.99
2022-08-20T04:36:14.468Z,99.99
2022-08-20T04:37:17.189Z,99.99
2022-08-20T04:38:14.440Z,99.99
2022-08-20T04:39:14.428Z,99.99
2022-08-20T04:40:14.477Z,99.99
2022-08-20T04:41:23.236Z,99.99
2022-08-20T04:42:15.421Z,99.99
2022-08-20T04:43:14.378Z,99.99
2022-08-20T04:44:14.365Z,99.99
2022-08-20T04:45:14.345Z,99.99
2022-08-20T04:46:14.337Z,99.99
2022-08-20T04:47:14.322Z,99.99
2022-08-20T04:48:15.324Z,99.99
2022-08-20T04:49:14.294Z,99.99
2022-08-20T04:50:14.281Z,99.99
2022-08-20T04:51:14.272Z,99.99
2022-08-20T04:52:14.259Z,99.99
2022-08-20T04:53:14.243Z,99.99
2022-08-20T04:54:14.229Z,99.99
2022-08-20T04:55:14.218Z,99.99
2022-08-20T04:56:14.201Z,99.99
2022-08-20T04:57:14.191Z,99.99
2022-08-20T04:58:14.180Z,99.99
2022-08-20T04:59:14.162Z,99.99
2022-08-20T05:00:14.152Z,99.99
2022-08-20T05:01:14.179Z,99.99
2022-08-20T05:02:15.468Z,99.99
2022-08-20T05:03:14.121Z,99.99
2022-08-20T05:04:14.105Z,99.99
2022-08-20T05:05:14.084Z,99.99
2022-08-20T05:06:14.075Z,99.99
2022-08-20T05:07:14.062Z,99.99
2022-08-20T05:08:19.854Z,99.99
2022-08-20T05:09:15.061Z,99.99
2022-08-20T05:10:14.021Z,99.99
2022-08-20T05:11:33.610Z,99.99
2022-08-20T05:12:15.022Z,99.99
2022-08-20T05:13:13.980Z,99.99
2022-08-20T05:14:13.969Z,99.99
2022-08-20T05:15:13.958Z,99.99
2022-08-20T05:16:13.943Z,99.99
2022-08-20T05:17:13.929Z,99.99
2022-08-20T05:18:13.915Z,99.99
2022-08-20T05:19:13.901Z,99.99
2022-08-20T05:20:13.893Z,99.99
2022-08-20T05:21:15.469Z,99.99
2022-08-20T05:22:13.867Z,99.99
2022-08-20T05:23:13.857Z,99.99
2022-08-20T05:24:13.841Z,99.99
2022-08-20T05:25:13.822Z,99.99
2022-08-20T05:26:13.810Z,99.99
2022-08-20T05:27:18.002Z,99.99
2022-08-20T05:28:14.820Z,99.99
2022-08-20T05:29:13.770Z,99.99
2022-08-20T05:30:13.766Z,99.99
2022-08-20T05:31:13.746Z,99.99
2022-08-20T05:32:13.737Z,99.99
2022-08-20T05:33:13.721Z,99.99
2022-08-20T05:34:13.709Z,99.99
2022-08-20T05:35:13.696Z,99.99
2022-08-20T05:36:13.682Z,99.99
2022-08-20T05:37:13.666Z,99.99
2022-08-20T05:38:13.656Z,99.99
2022-08-20T05:39:13.642Z,99.99
2022-08-20T05:40:13.670Z,99.99
2022-08-20T05:41:13.621Z,99.99
2022-08-20T05:42:14.631Z,99.99
2022-08-20T05:43:13.592Z,99.99
2022-08-20T05:44:13.876Z,99.99
2022-08-20T05:45:13.561Z,99.99
2022-08-20T05:46:13.556Z,99.99
2022-08-20T05:47:13.535Z,99.99
2022-08-20T05:48:13.523Z,99.99
2022-08-20T05:49:13.521Z,99.99
2022-08-20T05:50:23.233Z,99.99
2022-08-20T05:51:15.289Z,99.99
2022-08-20T05:52:13.476Z,99.99
2022-08-20T05:53:13.457Z,99.99
2022-08-20T05:54:13.446Z,99.99
2022-08-20T05:55:13.431Z,99.99
2022-08-20T05:56:13.421Z,99.99
2022-08-20T05:57:13.406Z,99.99
2022-08-20T05:58:13.392Z,99.99
2022-08-20T05:59:13.379Z,99.99
2022-08-20T06:00:13.365Z,99.99
2022-08-20T06:01:13.433Z,99.99
2022-08-20T06:02:13.342Z,99.99
2022-08-20T06:03:13.322Z,99.99
2022-08-20T06:04:13.322Z,99.99
2022-08-20T06:05:13.300Z,99.99
2022-08-20T06:06:15.109Z,99.99
2022-08-20T06:07:13.273Z,99.99
2022-08-20T06:08:13.261Z,99.99
2022-08-20T06:09:13.247Z,99.99
2022-08-20T06:10:13.235Z,99.99
2022-08-20T06:11:13.220Z,99.99
2022-08-20T06:12:13.211Z,99.99
2022-08-20T06:13:13.214Z,99.99
2022-08-20T06:14:13.182Z,99.99
2022-08-20T06:15:13.166Z,99.99
2022-08-20T06:16:13.157Z,99.99
2022-08-20T06:17:13.536Z,99.99
2022-08-20T06:18:28.365Z,99.99
2022-08-20T06:19:14.148Z,99.99
2022-08-20T06:20:14.139Z,99.99
2022-08-20T06:21:13.091Z,99.99
2022-08-20T06:22:19.459Z,99.99
2022-08-20T06:23:14.097Z,99.99
2022-08-20T06:24:13.049Z,99.99
2022-08-20T06:25:13.036Z,99.99
2022-08-20T06:26:13.020Z,99.99
2022-08-20T06:27:13.017Z,99.99
2022-08-20T06:28:12.997Z,99.99
2022-08-20T06:29:12.982Z,99.99
2022-08-20T06:30:12.967Z,99.99
2022-08-20T06:31:12.959Z,99.99
2022-08-20T06:32:12.945Z,99.99
2022-08-20T06:33:12.938Z,99.99
2022-08-20T06:34:12.919Z,99.99
2022-08-20T06:35:15.910Z,99.99
2022-08-20T06:36:12.893Z,99.99
2022-08-20T06:37:13.909Z,99.99
2022-08-20T06:38:12.884Z,99.99
2022-08-20T06:39:12.851Z,99.99
2022-08-20T06:40:12.961Z,99.41
2022-08-20T06:41:12.830Z,98.86
2022-08-20T06:42:12.812Z,98.47
2022-08-20T06:43:12.803Z,94.07
2022-08-20T06:44:12.787Z,86.24
2022-08-20T06:45:12.777Z,79.23
2022-08-20T06:46:12.760Z,74.51
2022-08-20T06:47:12.750Z,72.75
2022-08-20T06:48:15.150Z,73.99
2022-08-20T06:49:12.718Z,73.75
2022-08-20T06:50:12.706Z,75.19
2022-08-20T06:51:12.694Z,76.56
2022-08-20T06:52:12.680Z,77.10
2022-08-20T06:53:12.668Z,77.40
2022-08-20T06:54:12.655Z,78.14
2022-08-20T06:55:12.642Z,79.10
2022-08-20T06:56:12.629Z,77.86
2022-08-20T06:57:12.632Z,78.34
2022-08-20T06:58:15.663Z,80.58
2022-08-20T06:59:13.625Z,81.56
2022-08-20T07:00:12.605Z,82.70
2022-08-20T07:01:12.665Z,84.09
2022-08-20T07:02:12.549Z,85.14
2022-08-20T07:03:12.535Z,86.28
2022-08-20T07:04:12.531Z,87.53
2022-08-20T07:05:12.510Z,88.58
2022-08-20T07:06:12.497Z,89.69
2022-08-20T07:07:12.485Z,90.84
2022-08-20T07:08:12.473Z,91.44
2022-08-20T07:09:12.458Z,92.19
2022-08-20T07:10:12.449Z,92.69
2022-08-20T07:11:12.428Z,93.54
2022-08-20T07:12:12.424Z,94.45
2022-08-20T07:13:12.411Z,95.00
2022-08-20T07:14:12.396Z,95.30
2022-08-20T07:15:12.385Z,95.81
2022-08-20T07:16:12.375Z,96.01
2022-08-20T07:17:12.502Z,96.56
2022-08-20T07:18:12.342Z,96.15
2022-08-20T07:19:12.327Z,96.25
2022-08-20T07:20:12.319Z,96.70
2022-08-20T07:21:12.316Z,97.11
2022-08-20T07:22:12.292Z,97.41
2022-08-20T07:23:12.275Z,97.81
2022-08-20T07:24:12.267Z,98.11
2022-08-20T07:25:12.252Z,98.42
2022-08-20T07:26:12.234Z,98.52
2022-08-20T07:27:12.224Z,98.52
2022-08-20T07:28:12.205Z,98.62
2022-08-20T07:29:12.205Z,98.82
2022-08-20T07:30:15.133Z,98.82
2022-08-20T07:31:14.330Z,99.02
2022-08-20T07:32:12.157Z,99.38
2022-08-20T07:33:12.148Z,99.58
2022-08-20T07:34:12.134Z,99.68
2022-08-20T07:35:12.122Z,99.88
2022-08-20T07:36:12.112Z,99.98
2022-08-20T07:37:12.099Z,99.99
2022-08-20T07:38:12.085Z,99.99
2022-08-20T07:39:12.068Z,99.99
2022-08-20T07:40:12.138Z,99.99
2022-08-20T07:41:12.043Z,99.99
2022-08-20T07:42:12.027Z,99.99
2022-08-20T07:43:12.017Z,99.99
2022-08-20T07:44:12.004Z,99.99
2022-08-20T07:45:11.991Z,99.99
2022-08-20T07:46:11.983Z,99.84
2022-08-20T07:47:11.968Z,99.99
2022-08-20T07:48:11.945Z,99.99
2022-08-20T07:49:11.936Z,99.99
2022-08-20T07:50:11.923Z,99.99
2022-08-20T07:51:11.919Z,99.99
2022-08-20T07:52:11.894Z,99.99
2022-08-20T07:53:11.886Z,99.99
2022-08-20T07:54:11.874Z,99.79
2022-08-20T07:55:11.862Z,99.13
2022-08-20T07:56:11.849Z,98.63
2022-08-20T07:57:12.126Z,98.63
2022-08-20T07:58:11.817Z,98.48
2022-08-20T07:59:11.808Z,98.28
2022-08-20T08:00:11.796Z,97.93
2022-08-20T08:01:11.901Z,97.63
2022-08-20T08:02:11.768Z,97.08
2022-08-20T08:03:11.762Z,96.48
2022-08-20T08:04:11.746Z,95.97
2022-08-20T08:05:11.738Z,95.57
2022-08-20T08:06:11.716Z,95.27
2022-08-20T08:07:11.707Z,94.96
2022-08-20T08:08:11.690Z,95.27
2022-08-20T08:09:11.678Z,95.77
2022-08-20T08:10:11.666Z,96.58
2022-08-20T08:11:12.143Z,96.48
2022-08-20T08:12:11.640Z,96.83
2022-08-20T08:13:11.627Z,97.28
2022-08-20T08:14:11.617Z,97.38
2022-08-20T08:15:11.601Z,97.69
2022-08-20T08:16:11.592Z,97.99
2022-08-20T08:17:11.579Z,98.09
2022-08-20T08:18:11.565Z,98.24
2022-08-20T08:19:11.551Z,98.33
2022-08-20T08:20:11.542Z,97.43
2022-08-20T08:21:11.524Z,96.77
2022-08-20T08:22:11.517Z,96.97
2022-08-20T08:23:11.499Z,97.38
2022-08-20T08:24:14.330Z,97.67
2022-08-20T08:25:11.497Z,97.78
2022-08-20T08:26:16.174Z,96.36
2022-08-20T08:27:12.475Z,95.92
2022-08-20T08:28:11.432Z,96.32
2022-08-20T08:29:11.419Z,97.49
2022-08-20T08:30:11.406Z,96.98
2022-08-20T08:31:11.397Z,95.93
2022-08-20T08:32:11.384Z,95.07
2022-08-20T08:33:11.368Z,94.67
2022-08-20T08:34:11.356Z,94.07
2022-08-20T08:35:11.343Z,94.07
2022-08-20T08:36:11.332Z,93.07
2022-08-20T08:37:11.318Z,94.98
2022-08-20T08:38:14.328Z,94.93
2022-08-20T08:39:11.292Z,94.17
2022-08-20T08:40:11.378Z,93.32
2022-08-20T08:41:11.265Z,93.32
2022-08-20T08:42:11.261Z,94.63
2022-08-20T08:43:11.250Z,94.43
2022-08-20T08:44:11.251Z,92.82
2022-08-20T08:45:11.215Z,92.72
2022-08-20T08:46:11.202Z,93.12
2022-08-20T08:47:11.190Z,93.02
2022-08-20T08:48:15.221Z,92.76
2022-08-20T08:49:12.193Z,92.26
2022-08-20T08:50:11.152Z,92.96
2022-08-20T08:51:11.139Z,94.57
2022-08-20T08:52:11.123Z,94.17
2022-08-20T08:53:11.112Z,94.17
2022-08-20T08:54:11.098Z,94.67
2022-08-20T08:55:11.086Z,95.28
2022-08-20T08:56:11.080Z,94.67
2022-08-20T08:57:11.060Z,94.62
2022-08-20T08:58:17.141Z,95.02
2022-08-20T08:59:12.067Z,94.32
2022-08-20T09:00:11.034Z,94.12
2022-08-20T09:01:53.340Z,93.91
2022-08-20T09:02:12.107Z,94.72
2022-08-20T09:03:11.002Z,95.53
2022-08-20T09:04:10.969Z,94.52
2022-08-20T09:05:10.958Z,94.87
2022-08-20T09:06:10.946Z,94.87
2022-08-20T09:07:10.953Z,95.37
2022-08-20T09:08:14.841Z,95.47
2022-08-20T09:09:10.907Z,94.76
2022-08-20T09:10:10.900Z,95.57
2022-08-20T09:11:10.882Z,95.72
2022-08-20T09:12:10.868Z,95.41
2022-08-20T09:13:10.855Z,95.51
2022-08-20T09:14:10.848Z,96.42
2022-08-20T09:15:10.828Z,96.92
2022-08-20T09:16:10.817Z,96.62
2022-08-20T09:17:10.801Z,97.43
2022-08-20T09:18:10.792Z,97.07
2022-08-20T09:19:10.782Z,97.58
2022-08-20T09:20:10.770Z,97.98
2022-08-20T09:21:10.751Z,98.28
2022-08-20T09:22:10.745Z,98.99
2022-08-20T09:23:10.728Z,99.69
2022-08-20T09:24:10.713Z,99.99
2022-08-20T09:25:10.701Z,99.89
2022-08-20T09:26:10.689Z,99.99
2022-08-20T09:27:10.677Z,99.29
2022-08-20T09:28:10.672Z,99.49
2022-08-20T09:29:10.654Z,99.84
2022-08-20T09:30:10.635Z,99.64
2022-08-20T09:31:10.630Z,99.94
2022-08-20T09:32:10.614Z,99.99
2022-08-20T09:33:10.598Z,99.99
2022-08-20T09:34:10.585Z,99.99
2022-08-20T09:35:10.576Z,99.99
2022-08-20T09:36:31.680Z,99.99
2022-08-20T09:37:11.574Z,99.99
2022-08-20T09:38:10.536Z,99.99
2022-08-20T09:39:10.522Z,99.99
2022-08-20T09:40:10.579Z,99.99
2022-08-20T09:41:10.500Z,99.99
2022-08-20T09:42:10.481Z,99.99
2022-08-20T09:43:10.472Z,99.99
2022-08-20T09:44:10.461Z,99.99
2022-08-20T09:45:10.968Z,99.99
2022-08-20T09:46:10.432Z,99.99
2022-08-20T09:47:10.418Z,99.99
2022-08-20T09:48:10.707Z,99.99
2022-08-20T09:49:10.600Z,99.99
2022-08-20T09:50:10.387Z,99.99
2022-08-20T09:51:10.373Z,99.99
2022-08-20T09:52:10.376Z,99.99
2022-08-20T09:53:10.348Z,99.99
2022-08-20T09:54:10.330Z,99.99
2022-08-20T09:55:10.314Z,99.99
2022-08-20T09:56:10.303Z,99.99
2022-08-20T09:57:10.293Z,99.99
2022-08-20T09:58:10.285Z,99.99
2022-08-20T09:59:10.270Z,99.99
2022-08-20T10:00:10.257Z,99.99
2022-08-20T10:01:13.722Z,99.99
2022-08-20T10:02:10.315Z,99.99
2022-08-20T10:03:10.213Z,99.99
2022-08-20T10:04:10.210Z,99.99
2022-08-20T10:05:12.261Z,99.99
2022-08-20T10:06:10.172Z,99.99
2022-08-20T10:07:10.161Z,99.99
2022-08-20T10:08:10.150Z,99.99
2022-08-20T10:09:10.133Z,99.99
2022-08-20T10:10:10.123Z,99.99
2022-08-20T10:11:10.109Z,99.99
2022-08-20T10:12:10.108Z,99.99
2022-08-20T10:13:13.262Z,99.99
2022-08-20T10:14:10.076Z,99.99
2022-08-20T10:15:10.063Z,99.99
2022-08-20T10:16:10.048Z,99.99
2022-08-20T10:17:10.035Z,99.99
2022-08-20T10:18:10.021Z,99.99
2022-08-20T10:19:10.016Z,99.99
2022-08-20T10:20:10.000Z,99.99
2022-08-20T10:21:09.986Z,99.99
2022-08-20T10:22:09.973Z,99.99
2022-08-20T10:23:09.953Z,99.99
2022-08-20T10:24:09.945Z,99.99
2022-08-20T10:25:09.930Z,99.99
2022-08-20T10:26:09.922Z,99.99
2022-08-20T10:27:09.905Z,99.99
2022-08-20T10:28:09.892Z,99.99
2022-08-20T10:29:09.882Z,99.99
2022-08-20T10:30:09.872Z,99.99
2022-08-20T10:31:09.857Z,99.99
2022-08-20T10:32:09.840Z,99.99
2022-08-20T10:33:09.828Z,99.99
2022-08-20T10:34:09.816Z,99.99
2022-08-20T10:35:09.802Z,99.99
2022-08-20T10:36:09.790Z,99.99
2022-08-20T10:37:09.777Z,99.99
2022-08-20T10:38:09.766Z,99.99
2022-08-20T10:39:09.754Z,99.99
2022-08-20T10:40:09.801Z,99.99
2022-08-20T10:41:09.726Z,99.99
2022-08-20T10:42:09.713Z,99.99
2022-08-20T10:43:09.699Z,99.99
2022-08-20T10:44:09.691Z,99.99
2022-08-20T10:45:09.674Z,99.99
2022-08-20T10:46:09.662Z,99.99
2022-08-20T10:47:09.649Z,99.99
2022-08-20T10:48:09.640Z,99.99
2022-08-20T10:49:09.623Z,99.99
2022-08-20T10:50:09.616Z,99.99
2022-08-20T10:51:09.608Z,99.99
2022-08-20T10:52:09.597Z,99.99
2022-08-20T10:53:09.573Z,99.99
2022-08-20T10:54:12.615Z,99.99
2022-08-20T10:55:09.550Z,99.99
2022-08-20T10:56:13.744Z,99.99
2022-08-20T10:57:09.523Z,99.99
2022-08-20T10:58:11.511Z,99.99
2022-08-20T10:59:09.491Z,99.99
2022-08-20T11:00:09.485Z,99.99
2022-08-20T11:01:09.476Z,99.99
2022-08-20T11:02:09.514Z,99.99
2022-08-20T11:03:09.441Z,99.99
2022-08-20T11:04:09.430Z,99.99
2022-08-20T11:05:09.432Z,99.99
2022-08-20T11:06:09.412Z,99.99
2022-08-20T11:07:09.399Z,99.99
2022-08-20T11:08:09.393Z,99.99
2022-08-20T11:09:09.658Z,99.80
2022-08-20T11:10:13.595Z,99.99
2022-08-20T11:11:09.342Z,99.99
2022-08-20T11:12:09.331Z,99.99
2022-08-20T11:13:09.327Z,99.80
2022-08-20T11:14:09.305Z,99.50
2022-08-20T11:15:09.511Z,99.40
2022-08-20T11:16:09.281Z,98.99
2022-08-20T11:17:09.269Z,98.90
2022-08-20T11:18:09.253Z,98.49
2022-08-20T11:19:09.246Z,98.49
2022-08-20T11:20:09.227Z,98.99
2022-08-20T11:21:09.211Z,99.15
2022-08-20T11:22:09.202Z,98.44
2022-08-20T11:23:09.188Z,98.24
2022-08-20T11:24:09.176Z,97.94
2022-08-20T11:25:09.164Z,98.04
2022-08-20T11:26:09.151Z,98.14
2022-08-20T11:27:09.138Z,98.24
2022-08-20T11:28:09.125Z,97.64
2022-08-20T11:29:09.112Z,97.24
2022-08-20T11:30:09.099Z,97.33
2022-08-20T11:31:09.086Z,98.30
2022-08-20T11:32:09.076Z,98.19
2022-08-20T11:33:09.061Z,98.30
2022-08-20T11:34:12.610Z,98.19
2022-08-20T11:35:38.325Z,97.39
2022-08-20T11:36:10.053Z,96.69
2022-08-20T11:37:09.010Z,95.48
2022-08-20T11:38:09.002Z,96.03
2022-08-20T11:39:08.981Z,96.83
2022-08-20T11:40:09.020Z,96.03
2022-08-20T11:41:08.960Z,96.73
2022-08-20T11:42:08.947Z,96.43
2022-08-20T11:43:17.504Z,96.83
2022-08-20T11:44:20.938Z,96.43
2022-08-20T11:45:09.944Z,96.63
2022-08-20T11:46:08.907Z,97.24
2022-08-20T11:47:08.889Z,98.04
2022-08-20T11:48:08.872Z,98.74
2022-08-20T11:49:08.858Z,99.25
2022-08-20T11:50:08.862Z,99.30
2022-08-20T11:51:08.844Z,99.40
2022-08-20T11:52:08.818Z,99.60
2022-08-20T11:53:08.809Z,99.80
2022-08-20T11:54:08.797Z,99.90
2022-08-20T11:55:08.783Z,99.99
2022-08-20T11:56:08.767Z,99.99
2022-08-20T11:57:08.755Z,99.99
2022-08-20T11:58:08.742Z,99.99
2022-08-20T11:59:08.733Z,99.99
2022-08-20T12:00:08.803Z,99.99
2022-08-20T12:01:08.704Z,99.99
2022-08-20T12:02:12.316Z,99.99
2022-08-20T12:03:10.151Z,99.99
2022-08-20T12:04:08.667Z,99.99
2022-08-20T12:05:08.654Z,99.99
2022-08-20T12:06:08.643Z,99.99
2022-08-20T12:07:08.628Z,99.99
2022-08-20T12:08:08.614Z,99.99
2022-08-20T12:09:08.599Z,99.99
2022-08-20T12:10:08.678Z,99.99
2022-08-20T12:11:08.573Z,99.99
2022-08-20T12:12:08.564Z,99.99
2022-08-20T12:13:08.552Z,99.99
2022-08-20T12:14:08.537Z,99.99
2022-08-20T12:15:08.522Z,99.99
2022-08-20T12:16:08.509Z,99.99
2022-08-20T12:17:08.498Z,99.99
2022-08-20T12:18:08.488Z,99.65
2022-08-20T12:19:08.477Z,99.70
2022-08-20T12:20:08.560Z,99.99
2022-08-20T12:21:08.444Z,99.99
2022-08-20T12:22:23.751Z,99.99
2022-08-20T12:23:08.421Z,99.99
2022-08-20T12:24:08.409Z,99.99
2022-08-20T12:25:08.397Z,99.99
2022-08-20T12:26:08.387Z,99.99
2022-08-20T12:27:08.376Z,99.99
2022-08-20T12:28:08.355Z,99.99
2022-08-20T12:29:08.348Z,99.99
2022-08-20T12:30:08.332Z,99.99
2022-08-20T12:31:08.322Z,99.99
2022-08-20T12:32:08.306Z,99.99
2022-08-20T12:33:08.294Z,99.99
2022-08-20T12:34:08.281Z,99.25
2022-08-20T12:35:08.271Z,99.55
2022-08-20T12:36:08.259Z,99.85
2022-08-20T12:37:09.369Z,99.90
2022-08-20T12:38:08.230Z,99.90
2022-08-20T12:39:08.218Z,99.10
2022-08-20T12:40:08.339Z,98.30
2022-08-20T12:41:08.192Z,98.50
2022-08-20T12:42:08.181Z,97.39
2022-08-20T12:43:08.169Z,96.98
2022-08-20T12:44:08.151Z,97.19
2022-08-20T12:45:08.139Z,96.59
2022-08-20T12:46:08.132Z,96.19
2022-08-20T12:47:08.115Z,95.53
2022-08-20T12:48:08.107Z,95.73
2022-08-20T12:49:08.086Z,95.93
2022-08-20T12:50:08.077Z,96.33
2022-08-20T12:51:08.065Z,95.93
2022-08-20T12:52:08.048Z,96.63